createdAt,value
2018-12-18T00:00:26.180Z,-2.93
2018-12-18T00:02:54.026Z,-2.90
2018-12-18T00:05:27.439Z,-2.90
2018-12-18T00:07:55.454Z,-3.00
2018-12-18T00:10:25.449Z,-3.02
2018-12-18T00:12:53.367Z,-3.03
2018-12-18T00:15:21.865Z,-3.03
2018-12-18T00:17:49.904Z,-3.02
2018-12-18T00:20:17.855Z,-3.09
2018-12-18T00:22:45.681Z,-3.11
2018-12-18T00:25:13.701Z,-3.11
2018-12-18T00:27:41.758Z,-3.02
2018-12-18T00:30:10.103Z,-3.01
2018-12-18T00:32:37.981Z,-2.97
2018-12-18T00:35:05.822Z,-2.91
2018-12-18T00:37:33.659Z,-2.93
2018-12-18T00:40:01.551Z,-2.98
2018-12-18T00:42:29.381Z,-2.95
2018-12-18T00:44:57.169Z,-2.98
2018-12-18T00:47:25.197Z,-2.98
2018-12-18T00:49:53.080Z,-2.98
2018-12-18T00:52:20.991Z,-3.05
2018-12-18T00:54:48.887Z,-3.03
2018-12-18T00:57:16.734Z,-2.98
2018-12-18T00:59:44.592Z,-3.07
2018-12-18T01:02:12.619Z,-2.98
2018-12-18T01:04:40.749Z,-2.93
2018-12-18T01:07:08.794Z,-2.95
2018-12-18T01:09:36.732Z,-2.91
2018-12-18T01:12:04.582Z,-2.93
2018-12-18T01:14:32.416Z,-2.89
2018-12-18T01:17:00.246Z,-2.98
2018-12-18T01:19:28.349Z,-2.86
2018-12-18T01:21:56.796Z,-2.94
2018-12-18T01:24:24.745Z,-2.86
2018-12-18T01:26:52.671Z,-2.87
2018-12-18T01:29:20.565Z,-2.81
2018-12-18T01:31:48.461Z,-2.83
2018-12-18T01:34:16.540Z,-2.89
2018-12-18T01:36:44.379Z,-2.88
2018-12-18T01:39:12.290Z,-2.93
2018-12-18T01:41:40.118Z,-2.88
2018-12-18T01:44:07.949Z,-2.86
2018-12-18T01:46:35.735Z,-2.88
2018-12-18T01:49:03.681Z,-2.93
2018-12-18T01:51:31.863Z,-2.93
2018-12-18T01:53:59.879Z,-2.83
2018-12-18T01:56:27.808Z,-2.87
2018-12-18T01:58:55.753Z,-2.87
2018-12-18T02:01:23.678Z,-2.86
2018-12-18T02:03:51.565Z,-2.89
2018-12-18T02:06:19.423Z,-2.87
2018-12-18T02:08:47.312Z,-2.87
2018-12-18T02:11:15.151Z,-2.91
2018-12-18T02:13:43.191Z,-2.83
2018-12-18T02:16:11.045Z,-2.82
2018-12-18T02:18:38.952Z,-2.84
2018-12-18T02:21:06.806Z,-2.90
2018-12-18T02:23:34.721Z,-2.87
2018-12-18T02:26:02.652Z,-2.84
2018-12-18T02:28:30.500Z,-2.79
2018-12-18T02:30:58.458Z,-2.84
2018-12-18T02:33:26.394Z,-2.82
2018-12-18T02:35:54.231Z,-2.88
2018-12-18T02:38:22.170Z,-2.71
2018-12-18T02:40:49.970Z,-2.75
2018-12-18T02:43:17.882Z,-2.73
2018-12-18T02:45:45.748Z,-2.87
2018-12-18T02:48:13.655Z,-2.82
2018-12-18T02:50:41.769Z,-2.79
2018-12-18T02:53:09.863Z,-2.87
2018-12-18T02:55:37.823Z,-2.87
2018-12-18T02:58:05.676Z,-2.87
2018-12-18T03:00:33.677Z,-2.90
2018-12-18T03:03:01.586Z,-2.90
2018-12-18T03:05:29.761Z,-2.86
2018-12-18T03:07:57.646Z,-2.77
2018-12-18T03:10:25.770Z,-2.75
2018-12-18T03:12:53.708Z,-2.84
2018-12-18T03:15:21.937Z,-2.93
2018-12-18T03:17:50.169Z,-2.82
2018-12-18T03:20:18.197Z,-2.83
2018-12-18T03:22:46.261Z,-2.87
2018-12-18T03:25:14.538Z,-2.82
2018-12-18T03:27:42.548Z,-2.81
2018-12-18T03:30:10.406Z,-2.77
2018-12-18T03:32:46.885Z,-2.80
2018-12-18T03:35:14.688Z,-2.79
2018-12-18T03:37:42.517Z,-2.82
2018-12-18T03:40:10.383Z,-2.84
2018-12-18T03:42:38.302Z,-2.80
2018-12-18T03:45:06.996Z,-2.75
2018-12-18T03:47:35.001Z,-2.80
2018-12-18T03:50:03.036Z,-2.77
2018-12-18T03:52:31.108Z,-2.80
2018-12-18T03:54:58.939Z,-2.75
2018-12-18T03:57:26.797Z,-2.75
2018-12-18T03:59:54.674Z,-2.76
2018-12-18T04:02:22.534Z,-2.83
2018-12-18T04:04:50.548Z,-2.82
2018-12-18T04:07:18.636Z,-2.85
2018-12-18T04:09:46.497Z,-2.79
2018-12-18T04:12:23.725Z,-2.79
2018-12-18T04:14:51.908Z,-2.83
2018-12-18T04:17:19.723Z,-2.86
2018-12-18T04:19:47.620Z,-2.87
2018-12-18T04:22:15.474Z,-2.86
2018-12-18T04:24:43.341Z,-2.88
2018-12-18T04:27:11.333Z,-2.87
2018-12-18T04:29:39.276Z,-2.82
2018-12-18T04:32:07.336Z,-2.78
2018-12-18T04:34:42.569Z,-2.92
2018-12-18T04:37:05.120Z,-2.88
2018-12-18T04:39:33.044Z,-2.88
2018-12-18T04:42:00.930Z,-2.89
2018-12-18T04:44:28.847Z,-2.96
2018-12-18T04:46:56.714Z,-2.98
2018-12-18T04:49:24.614Z,-2.93
2018-12-18T04:51:52.563Z,-2.94
2018-12-18T04:54:20.537Z,-2.97
2018-12-18T04:56:48.521Z,-2.90
2018-12-18T04:59:16.477Z,-2.96
2018-12-18T05:01:44.305Z,-3.00
2018-12-18T05:04:12.318Z,-2.95
2018-12-18T05:06:40.290Z,-3.02
2018-12-18T05:09:09.472Z,-2.97
2018-12-18T05:11:37.652Z,-2.97
2018-12-18T05:14:05.857Z,-2.96
2018-12-18T05:16:34.033Z,-3.02
2018-12-18T05:19:02.178Z,-3.03
2018-12-18T05:21:30.195Z,-3.00
2018-12-18T05:23:58.072Z,-3.02
2018-12-18T05:26:25.952Z,-3.00
2018-12-18T05:28:54.016Z,-3.07
2018-12-18T05:31:21.910Z,-3.08
2018-12-18T05:33:49.753Z,-3.10
2018-12-18T05:36:17.802Z,-3.12
2018-12-18T05:38:45.804Z,-3.10
2018-12-18T05:41:13.855Z,-3.05
2018-12-18T05:43:41.733Z,-3.15
2018-12-18T05:46:09.813Z,-3.06
2018-12-18T05:48:37.917Z,-3.17
2018-12-18T05:51:06.147Z,-3.10
2018-12-18T05:53:34.387Z,-3.04
2018-12-18T05:56:02.470Z,-3.15
2018-12-18T05:58:30.572Z,-3.09
2018-12-18T06:00:58.642Z,-3.03
2018-12-18T06:03:26.762Z,-2.93
2018-12-18T06:05:54.797Z,-2.97
2018-12-18T06:08:22.890Z,-2.99
2018-12-18T06:10:51.177Z,-3.04
2018-12-18T06:13:19.449Z,-2.93
2018-12-18T06:15:47.612Z,-2.96
2018-12-18T06:18:15.693Z,-2.86
2018-12-18T06:20:43.869Z,-2.90
2018-12-18T06:23:12.071Z,-2.85
2018-12-18T06:25:40.208Z,-2.82
2018-12-18T06:28:08.419Z,-2.78
2018-12-18T06:30:36.644Z,-2.73
2018-12-18T06:33:04.873Z,-2.68
2018-12-18T06:35:33.151Z,-2.66
2018-12-18T06:38:01.419Z,-2.63
2018-12-18T06:40:29.671Z,-2.58
2018-12-18T06:42:58.146Z,-2.59
2018-12-18T06:45:26.572Z,-2.57
2018-12-18T06:47:54.737Z,-2.53
2018-12-18T06:50:22.990Z,-2.56
2018-12-18T06:52:51.271Z,-2.53
2018-12-18T06:55:19.657Z,-2.59
2018-12-18T06:57:47.836Z,-2.59
2018-12-18T07:00:16.078Z,-2.53
2018-12-18T07:02:44.379Z,-2.50
2018-12-18T07:05:16.683Z,-2.51
2018-12-18T07:07:43.131Z,-2.62
2018-12-18T07:10:11.637Z,-2.49
2018-12-18T07:12:40.013Z,-2.43
2018-12-18T07:15:08.391Z,-2.46
2018-12-18T07:17:36.620Z,-2.36
2018-12-18T07:20:05.644Z,-2.33
2018-12-18T07:22:33.850Z,-2.26
2018-12-18T07:25:02.104Z,-2.21
2018-12-18T07:27:30.298Z,-2.20
2018-12-18T07:29:58.502Z,-2.12
2018-12-18T07:32:26.841Z,-2.11
2018-12-18T07:34:55.047Z,-2.03
2018-12-18T07:37:23.355Z,-1.97
2018-12-18T07:39:51.625Z,-2.03
2018-12-18T07:42:19.900Z,-2.13
2018-12-18T07:44:48.433Z,-1.90
2018-12-18T07:47:16.711Z,-2.00
2018-12-18T07:49:44.922Z,-1.92
2018-12-18T07:52:13.155Z,-1.82
2018-12-18T07:54:41.425Z,-1.81
2018-12-18T07:57:09.764Z,-1.73
2018-12-18T07:59:38.063Z,-1.64
2018-12-18T08:02:06.334Z,-1.75
2018-12-18T08:04:34.642Z,-1.67
2018-12-18T08:07:02.719Z,-1.54
2018-12-18T08:09:30.980Z,-1.39
2018-12-18T08:11:59.237Z,-1.49
2018-12-18T08:14:27.442Z,-1.46
2018-12-18T08:16:55.648Z,-1.58
2018-12-18T08:19:23.906Z,-1.46
2018-12-18T08:21:52.095Z,-1.60
2018-12-18T08:24:20.299Z,-1.39
2018-12-18T08:26:49.449Z,-1.20
2018-12-18T08:29:17.876Z,-1.17
2018-12-18T08:31:46.300Z,-1.24
2018-12-18T08:34:14.607Z,-1.21
2018-12-18T08:36:43.011Z,-1.11
2018-12-18T08:39:11.199Z,-0.92
2018-12-18T08:41:39.414Z,-1.03
2018-12-18T08:44:07.643Z,-1.24
2018-12-18T08:46:35.926Z,-1.05
2018-12-18T08:49:04.181Z,-1.08
2018-12-18T08:51:32.359Z,-1.05
2018-12-18T08:54:00.585Z,-0.85
2018-12-18T08:56:28.816Z,-0.88
2018-12-18T08:58:57.046Z,-0.81
2018-12-18T09:01:25.155Z,-0.88
2018-12-18T09:03:53.372Z,-0.66
2018-12-18T09:06:21.581Z,-0.74
2018-12-18T09:08:49.779Z,-0.78
2018-12-18T09:11:18.021Z,-0.89
2018-12-18T09:13:46.185Z,-0.74
2018-12-18T09:16:19.825Z,-0.58
2018-12-18T09:18:47.997Z,-0.67
2018-12-18T09:21:16.121Z,-0.46
2018-12-18T09:23:44.752Z,-0.69
2018-12-18T09:26:12.831Z,-0.38
2018-12-18T09:28:40.999Z,-0.47
2018-12-18T09:31:09.252Z,-0.14
2018-12-18T09:33:37.531Z,-0.04
2018-12-18T09:36:05.958Z,0.05
2018-12-18T09:38:39.721Z,-0.41
2018-12-18T09:41:13.452Z,0.12
2018-12-18T09:43:46.782Z,0.28
2018-12-18T09:46:14.690Z,0.24
2018-12-18T09:48:42.536Z,0.12
2018-12-18T09:51:11.342Z,-0.17
2018-12-18T09:53:39.456Z,-0.12
2018-12-18T09:56:07.427Z,-0.41
2018-12-18T09:58:35.610Z,-0.17
2018-12-18T10:01:03.782Z,-0.18
2018-12-18T10:03:33.678Z,-0.21
2018-12-18T10:06:02.256Z,-0.17
2018-12-18T10:08:30.687Z,-0.25
2018-12-18T10:10:59.853Z,-0.21
2018-12-18T10:13:28.235Z,0.01
2018-12-18T10:15:56.208Z,-0.23
2018-12-18T10:18:24.092Z,-0.22
2018-12-18T10:20:52.212Z,-0.35
2018-12-18T10:23:20.418Z,-0.50
2018-12-18T10:25:48.387Z,-0.27
2018-12-18T10:28:16.365Z,-0.46
2018-12-18T10:30:44.348Z,-0.36
2018-12-18T10:33:12.235Z,-0.49
2018-12-18T10:35:40.544Z,-0.42
2018-12-18T10:38:08.543Z,-0.47
2018-12-18T10:40:36.568Z,-0.48
2018-12-18T10:43:04.559Z,-0.37
2018-12-18T10:45:33.743Z,-0.18
2018-12-18T10:48:01.697Z,-0.13
2018-12-18T10:50:29.706Z,-0.33
2018-12-18T10:52:57.646Z,-0.46
2018-12-18T10:55:25.544Z,-0.24
2018-12-18T10:57:53.525Z,0.12
2018-12-18T11:00:26.837Z,0.35
2018-12-18T11:02:54.771Z,0.03
2018-12-18T11:05:22.666Z,0.15
2018-12-18T11:07:50.697Z,0.24
2018-12-18T11:10:18.639Z,0.42
2018-12-18T11:12:52.008Z,0.58
2018-12-18T11:15:19.961Z,0.19
2018-12-18T11:17:47.849Z,0.38
2018-12-18T11:20:15.713Z,0.60
2018-12-18T11:22:43.627Z,0.62
2018-12-18T11:25:11.546Z,0.74
2018-12-18T11:27:39.519Z,0.74
2018-12-18T11:30:08.071Z,0.67
2018-12-18T11:32:36.003Z,1.05
2018-12-18T11:35:04.177Z,0.77
2018-12-18T11:37:32.232Z,1.15
2018-12-18T11:40:00.199Z,0.79
2018-12-18T11:42:28.240Z,1.07
2018-12-18T11:44:56.242Z,0.94
2018-12-18T11:47:24.499Z,0.88
2018-12-18T11:49:52.590Z,1.06
2018-12-18T11:52:20.913Z,0.44
2018-12-18T11:54:49.001Z,0.23
2018-12-18T11:57:17.035Z,0.57
2018-12-18T11:59:45.311Z,0.62
2018-12-18T12:02:13.374Z,0.53
2018-12-18T12:04:41.225Z,0.35
2018-12-18T12:07:09.281Z,0.22
2018-12-18T12:09:37.211Z,0.04
2018-12-18T12:12:05.247Z,-0.33
2018-12-18T12:14:33.383Z,-0.33
2018-12-18T12:17:01.663Z,-0.04
2018-12-18T12:19:30.078Z,0.05
2018-12-18T12:21:58.154Z,-0.05
2018-12-18T12:24:26.114Z,0.11
2018-12-18T12:26:58.750Z,0.05
2018-12-18T12:29:27.093Z,-0.09
2018-12-18T12:31:55.497Z,-0.09
2018-12-18T12:34:23.713Z,-0.10
2018-12-18T12:36:51.766Z,-0.17
2018-12-18T12:39:20.466Z,-0.27
2018-12-18T12:41:48.782Z,-0.11
2018-12-18T12:44:17.176Z,-0.18
2018-12-18T12:46:45.817Z,-0.15
2018-12-18T12:49:14.342Z,-0.33
2018-12-18T12:51:42.418Z,-0.52
2018-12-18T12:54:10.435Z,-0.31
2018-12-18T12:56:38.557Z,-0.14
2018-12-18T12:59:06.978Z,-0.32
2018-12-18T13:01:35.066Z,-0.29
2018-12-18T13:04:03.262Z,-0.20
2018-12-18T13:06:36.408Z,-0.36
2018-12-18T13:09:01.587Z,-0.28
2018-12-18T13:11:29.592Z,-0.10
2018-12-18T13:13:57.613Z,-0.05
2018-12-18T13:16:25.612Z,-0.38
2018-12-18T13:18:53.581Z,-0.27
2018-12-18T13:21:21.695Z,-0.22
2018-12-18T13:23:49.769Z,-0.30
2018-12-18T13:26:17.856Z,-0.63
2018-12-18T13:28:45.929Z,-0.71
2018-12-18T13:31:14.125Z,-0.60
2018-12-18T13:33:42.057Z,-0.82
2018-12-18T13:36:09.964Z,-0.79
2018-12-18T13:38:37.965Z,-0.80
2018-12-18T13:41:05.913Z,-0.90
2018-12-18T13:43:33.905Z,-0.89
2018-12-18T13:46:01.965Z,-1.00
2018-12-18T13:48:29.919Z,-1.00
2018-12-18T13:50:59.030Z,-1.13
2018-12-18T13:53:27.376Z,-1.26
2018-12-18T13:55:55.403Z,-1.40
2018-12-18T13:58:23.409Z,-1.47
2018-12-18T14:00:51.380Z,-1.49
2018-12-18T14:03:19.425Z,-1.60
2018-12-18T14:05:47.540Z,-1.73
2018-12-18T14:08:15.839Z,-1.77
2018-12-18T14:10:44.013Z,-1.85
2018-12-18T14:13:12.058Z,-1.91
2018-12-18T14:15:40.121Z,-2.02
2018-12-18T14:18:08.291Z,-1.96
2018-12-18T14:20:36.231Z,-2.23
2018-12-18T14:23:04.363Z,-2.26
2018-12-18T14:25:32.438Z,-2.25
2018-12-18T14:28:00.498Z,-2.22
2018-12-18T14:30:28.514Z,-2.27
2018-12-18T14:32:56.435Z,-2.32
2018-12-18T14:35:24.381Z,-2.31
2018-12-18T14:37:52.503Z,-2.49
2018-12-18T14:40:20.417Z,-2.45
2018-12-18T14:42:48.369Z,-2.51
2018-12-18T14:45:16.238Z,-2.59
2018-12-18T14:47:44.172Z,-2.61
2018-12-18T14:50:12.484Z,-2.57
2018-12-18T14:52:40.400Z,-2.59
2018-12-18T14:55:08.971Z,-2.64
2018-12-18T14:57:37.375Z,-2.73
2018-12-18T15:00:06.259Z,-2.82
2018-12-18T15:02:34.252Z,-2.76
2018-12-18T15:05:02.453Z,-2.82
2018-12-18T15:07:30.423Z,-2.79
2018-12-18T15:09:58.476Z,-2.87
2018-12-18T15:12:26.843Z,-2.89
2018-12-18T15:14:55.237Z,-2.90
2018-12-18T15:17:23.260Z,-2.95
2018-12-18T15:19:51.358Z,-2.97
2018-12-18T15:22:20.435Z,-2.99
2018-12-18T15:24:48.415Z,-3.02
2018-12-18T15:27:16.473Z,-3.04
2018-12-18T15:29:44.492Z,-3.07
2018-12-18T15:32:12.521Z,-3.09
2018-12-18T15:34:41.152Z,-3.19
2018-12-18T15:37:09.818Z,-3.19
2018-12-18T15:39:38.345Z,-3.20
2018-12-18T15:42:06.356Z,-3.23
2018-12-18T15:44:34.396Z,-3.17
2018-12-18T15:47:02.388Z,-3.26
2018-12-18T15:49:30.458Z,-3.25
2018-12-18T15:51:58.480Z,-3.28
2018-12-18T15:54:26.543Z,-3.31
2018-12-18T15:56:54.608Z,-3.27
2018-12-18T15:59:22.593Z,-3.29
2018-12-18T16:01:50.633Z,-3.38
2018-12-18T16:04:18.776Z,-3.37
2018-12-18T16:06:46.892Z,-3.35
2018-12-18T16:09:15.034Z,-3.35
2018-12-18T16:11:43.262Z,-3.42
2018-12-18T16:14:11.514Z,-3.43
2018-12-18T16:16:39.833Z,-3.46
2018-12-18T16:19:07.905Z,-3.40
2018-12-18T16:21:36.576Z,-3.42
2018-12-18T16:24:04.747Z,-3.51
2018-12-18T16:26:32.846Z,-3.47
2018-12-18T16:29:01.050Z,-3.56
2018-12-18T16:31:29.092Z,-3.59
2018-12-18T16:33:57.243Z,-3.55
2018-12-18T16:36:25.197Z,-3.47
2018-12-18T16:38:53.466Z,-3.53
2018-12-18T16:41:21.437Z,-3.45
2018-12-18T16:43:49.424Z,-3.51
2018-12-18T16:46:17.471Z,-3.52
2018-12-18T16:48:45.747Z,-3.58
2018-12-18T16:51:13.743Z,-3.56
2018-12-18T16:53:41.989Z,-3.54
2018-12-18T16:56:10.151Z,-3.58
2018-12-18T16:58:38.138Z,-3.51
2018-12-18T17:01:06.233Z,-3.57
2018-12-18T17:03:34.422Z,-3.57
2018-12-18T17:06:02.349Z,-3.61
2018-12-18T17:08:32.145Z,-3.50
2018-12-18T17:11:00.326Z,-3.50
2018-12-18T17:13:28.340Z,-3.47
2018-12-18T17:15:56.248Z,-3.51
2018-12-18T17:18:24.345Z,-3.55
2018-12-18T17:20:52.311Z,-3.56
2018-12-18T17:23:20.389Z,-3.57
2018-12-18T17:25:48.359Z,-3.51
2018-12-18T17:28:16.509Z,-3.63
2018-12-18T17:30:44.424Z,-3.60
2018-12-18T17:33:12.544Z,-3.65
2018-12-18T17:35:42.244Z,-3.67
2018-12-18T17:38:10.442Z,-3.65
2018-12-18T17:40:39.007Z,-3.65
2018-12-18T17:43:07.152Z,-3.65
2018-12-18T17:45:35.432Z,-3.65
2018-12-18T17:48:03.513Z,-3.67
2018-12-18T17:50:31.538Z,-3.59
2018-12-18T17:52:59.816Z,-3.66
2018-12-18T17:55:27.863Z,-3.74
2018-12-18T17:57:56.818Z,-3.74
2018-12-18T18:00:24.968Z,-3.74
2018-12-18T18:02:53.102Z,-3.68
2018-12-18T18:05:21.474Z,-3.67
2018-12-18T18:07:49.637Z,-3.67
2018-12-18T18:10:17.819Z,-3.67
2018-12-18T18:12:46.366Z,-3.73
2018-12-18T18:15:14.295Z,-3.70
2018-12-18T18:17:42.754Z,-3.74
2018-12-18T18:20:11.263Z,-3.71
2018-12-18T18:22:39.505Z,-3.78
2018-12-18T18:25:07.735Z,-3.70
2018-12-18T18:27:35.957Z,-3.70
2018-12-18T18:30:04.840Z,-3.81
2018-12-18T18:32:33.033Z,-3.73
2018-12-18T18:35:01.004Z,-3.75
2018-12-18T18:37:29.112Z,-3.79
2018-12-18T18:39:57.038Z,-3.78
2018-12-18T18:42:25.096Z,-3.78
2018-12-18T18:44:53.182Z,-3.78
2018-12-18T18:47:21.181Z,-3.80
2018-12-18T18:49:49.095Z,-3.75
2018-12-18T18:52:17.180Z,-3.73
2018-12-18T18:54:45.168Z,-3.78
2018-12-18T18:57:13.204Z,-3.80
2018-12-18T18:59:41.135Z,-3.82
2018-12-18T19:02:09.357Z,-3.71
2018-12-18T19:04:37.377Z,-3.74
2018-12-18T19:07:05.367Z,-3.87
2018-12-18T19:09:33.265Z,-3.76
2018-12-18T19:12:01.344Z,-3.86
2018-12-18T19:14:29.507Z,-3.83
2018-12-18T19:16:57.491Z,-3.81
2018-12-18T19:19:25.612Z,-3.80
2018-12-18T19:21:53.633Z,-3.76
2018-12-18T19:24:21.708Z,-3.87
2018-12-18T19:26:50.186Z,-3.85
2018-12-18T19:29:18.418Z,-3.89
2018-12-18T19:31:46.471Z,-3.86
2018-12-18T19:34:14.574Z,-3.72
2018-12-18T19:36:42.830Z,-3.78
2018-12-18T19:39:10.842Z,-3.80
2018-12-18T19:41:39.049Z,-3.84
2018-12-18T19:44:07.476Z,-3.86
2018-12-18T19:46:35.738Z,-3.90
2018-12-18T19:49:03.891Z,-3.84
2018-12-18T19:51:32.249Z,-3.83
2018-12-18T19:54:00.423Z,-3.87
2018-12-18T19:56:28.858Z,-3.89
2018-12-18T19:58:57.255Z,-3.94
2018-12-18T20:01:25.540Z,-3.92
2018-12-18T20:03:53.738Z,-3.88
2018-12-18T20:06:21.749Z,-3.81
2018-12-18T20:08:49.839Z,-3.83
2018-12-18T20:11:17.972Z,-3.85
2018-12-18T20:13:46.090Z,-3.83
2018-12-18T20:16:14.304Z,-3.77
2018-12-18T20:18:42.344Z,-3.88
2018-12-18T20:21:10.411Z,-3.83
2018-12-18T20:23:38.530Z,-3.80
2018-12-18T20:26:08.535Z,-3.78
2018-12-18T20:28:36.580Z,-3.72
2018-12-18T20:31:04.767Z,-3.77
2018-12-18T20:33:32.777Z,-3.79
2018-12-18T20:36:00.797Z,-3.79
2018-12-18T20:38:28.820Z,-3.73
2018-12-18T20:40:56.899Z,-3.79
2018-12-18T20:43:24.905Z,-3.84
2018-12-18T20:45:53.000Z,-3.90
2018-12-18T20:48:21.140Z,-3.83
2018-12-18T20:50:49.191Z,-3.84
2018-12-18T20:53:17.582Z,-3.87
2018-12-18T20:55:45.868Z,-3.86
2018-12-18T20:58:14.063Z,-3.89
2018-12-18T21:00:42.110Z,-3.90
2018-12-18T21:03:09.962Z,-3.82
2018-12-18T21:05:37.875Z,-3.90
2018-12-18T21:08:05.923Z,-3.90
2018-12-18T21:10:33.908Z,-3.86
2018-12-18T21:13:07.509Z,-3.96
2018-12-18T21:15:35.614Z,-3.89
2018-12-18T21:18:03.688Z,-3.94
2018-12-18T21:20:31.772Z,-3.89
2018-12-18T21:22:59.739Z,-3.92
2018-12-18T21:25:27.711Z,-3.88
2018-12-18T21:27:55.727Z,-3.83
2018-12-18T21:30:23.746Z,-3.93
2018-12-18T21:32:51.764Z,-4.05
2018-12-18T21:35:19.884Z,-3.96
2018-12-18T21:37:48.028Z,-4.01
2018-12-18T21:40:16.099Z,-4.07
2018-12-18T21:42:44.144Z,-4.04
2018-12-18T21:45:12.161Z,-4.02
2018-12-18T21:47:40.137Z,-3.99
2018-12-18T21:50:08.249Z,-4.07
2018-12-18T21:52:36.343Z,-4.03
2018-12-18T21:55:04.348Z,-4.05
2018-12-18T21:57:32.290Z,-4.04
2018-12-18T22:00:00.344Z,-4.10
2018-12-18T22:02:28.347Z,-4.06
2018-12-18T22:04:56.318Z,-4.13
2018-12-18T22:07:24.302Z,-4.15
2018-12-18T22:09:52.346Z,-4.17
2018-12-18T22:12:20.489Z,-4.12
2018-12-18T22:14:48.515Z,-4.10
2018-12-18T22:17:16.549Z,-4.12
2018-12-18T22:19:44.529Z,-4.21
2018-12-18T22:22:12.477Z,-4.17
2018-12-18T22:24:40.512Z,-4.16
2018-12-18T22:27:08.602Z,-4.18
2018-12-18T22:29:36.662Z,-4.16
2018-12-18T22:32:04.919Z,-4.17
2018-12-18T22:34:32.893Z,-4.23
2018-12-18T22:37:00.912Z,-4.23
2018-12-18T22:39:28.886Z,-4.26
2018-12-18T22:41:56.884Z,-4.19
2018-12-18T22:44:24.854Z,-4.32
2018-12-18T22:46:52.842Z,-4.32
2018-12-18T22:49:20.785Z,-4.32
2018-12-18T22:51:48.751Z,-4.29
2018-12-18T22:54:16.641Z,-4.32
2018-12-18T22:56:44.667Z,-4.34
2018-12-18T22:59:12.726Z,-4.44
2018-12-18T23:01:45.067Z,-4.35
2018-12-18T23:04:14.596Z,-4.36
2018-12-18T23:06:42.607Z,-4.40
2018-12-18T23:09:14.154Z,-4.38
2018-12-18T23:11:42.185Z,-4.44
2018-12-18T23:14:10.179Z,-4.37
2018-12-18T23:16:38.179Z,-4.41
2018-12-18T23:19:06.304Z,-4.44
2018-12-18T23:21:34.288Z,-4.44
2018-12-18T23:24:02.252Z,-4.39
2018-12-18T23:26:31.868Z,-4.39
2018-12-18T23:29:03.211Z,-4.47
2018-12-18T23:31:31.525Z,-4.47
2018-12-18T23:33:59.502Z,-4.48
2018-12-18T23:36:28.115Z,-4.49
2018-12-18T23:38:57.020Z,-4.47
2018-12-18T23:41:25.298Z,-4.44
2018-12-18T23:43:53.426Z,-4.43
2018-12-18T23:46:21.336Z,-4.44
2018-12-18T23:48:49.263Z,-4.46
2018-12-18T23:51:17.375Z,-4.42
2018-12-18T23:53:45.334Z,-4.45
2018-12-18T23:56:13.341Z,-4.42
2018-12-18T23:58:41.307Z,-4.47
